Time;durP1;ratioP1;P1;durP2;ratioP2;P2;SDS_P1;SDS_P2;PMS_P1;PMS_P2;Temp;Humidity;BMP_temperature;BMP_pressure;BME280_temperature;BME280_humidity;BME280_pressure;Samples;Min_cycle;Max_cycle;Signal;HPM_P1;HPM_P2
2022/03/28 06:01:39;;;;;;;56.65;28.88;;;;;;;;;;5376002;23;20047;-86
2022/03/28 06:04:06;;;;;;;56.45;29.73;;;;;;;;;;4933315;28;20046;-89
2022/03/28 06:06:34;;;;;;;53.50;28.40;;;;;;;;;;4933620;28;20071;-87
2022/03/28 06:09:01;;;;;;;49.03;28.30;;;;;;;;;;4934023;28;20094;-88
2022/03/28 06:11:28;;;;;;;54.35;28.98;;;;;;;;;;4931949;28;20059;-88
2022/03/28 06:13:57;;;;;;;50.95;29.02;;;;;;;;;;4935475;28;20464;-88
2022/03/28 06:16:24;;;;;;;;;;;;;;;;;;4931057;28;20047;-88
2022/03/28 06:18:52;;;;;;;50.03;28.77;;;;;;;;;;4931790;28;20303;-88
2022/03/28 06:21:18;;;;;;;55.13;27.75;;;;;;;;;;4933520;28;20091;-88
2022/03/28 06:23:49;;;;;;;50.13;27.77;;;;;;;;;;4934206;28;20535;-89
2022/03/28 06:26:17;;;;;;;50.65;29.73;;;;;;;;;;4933593;28;20067;-88
2022/03/28 06:28:46;;;;;;;52.78;28.38;;;;;;;;;;4934820;28;20058;-88
2022/03/28 06:31:14;;;;;;;48.10;26.85;;;;;;;;;;4932854;28;20059;-89
2022/03/28 06:33:41;;;;;;;53.53;28.73;;;;;;;;;;4932734;28;20483;-88
2022/03/28 06:36:09;;;;;;;54.85;28.48;;;;;;;;;;4931357;28;20067;-86
2022/03/28 06:38:36;;;;;;;51.42;27.88;;;;;;;;;;4932275;28;20468;-89
2022/03/28 06:41:03;;;;;;;50.58;28.63;;;;;;;;;;4933662;28;20094;-90
2022/03/28 06:43:30;;;;;;;50.45;28.85;;;;;;;;;;4934052;28;20042;-89
2022/03/28 06:45:58;;;;;;;60.05;28.80;;;;;;;;;;4931592;28;20047;-89
2022/03/28 06:48:25;;;;;;;58.70;28.80;;;;;;;;;;4933225;28;20103;-90
2022/03/28 06:51:01;;;;;;;61.75;28.65;;;;;;;;;;4915861;28;20528;-88
2022/03/28 06:53:27;;;;;;;56.25;28.13;;;;;;;;;;4932806;28;20048;-89
2022/03/28 06:55:54;;;;;;;53.75;27.45;;;;;;;;;;4930676;28;20056;-88
2022/03/28 06:58:21;;;;;;;53.00;29.40;;;;;;;;;;4930087;28;20241;-88
2022/03/28 07:00:48;;;;;;;47.20;24.95;;;;;;;;;;4932810;28;20059;-87
2022/03/28 07:03:15;;;;;;;50.17;27.63;;;;;;;;;;4925531;28;20080;-89
2022/03/28 07:05:44;;;;;;;49.55;27.35;;;;;;;;;;4929799;28;20127;-89
2022/03/28 07:08:12;;;;;;;48.80;27.75;;;;;;;;;;4932933;28;20044;-89
2022/03/28 07:10:40;;;;;;;;;;;;;;;;;;4933111;28;20111;-90
2022/03/28 07:13:06;;;;;;;54.92;27.02;;;;;;;;;;4931984;28;20041;-89
2022/03/28 07:15:33;;;;;;;47.83;26.80;;;;;;;;;;4933095;28;20043;-89
2022/03/28 07:18:06;;;;;;;46.58;26.85;;;;;;;;;;4931108;28;20055;-90
2022/03/28 07:20:33;;;;;;;51.72;27.08;;;;;;;;;;4932235;28;20152;-89
2022/03/28 07:23:01;;;;;;;45.83;26.42;;;;;;;;;;4932201;29;20106;-89
2022/03/28 07:25:28;;;;;;;46.25;27.55;;;;;;;;;;4932020;28;20050;-89
2022/03/28 07:27:56;;;;;;;45.13;26.33;;;;;;;;;;4930882;28;20607;-89
2022/03/28 07:30:23;;;;;;;46.75;28.00;;;;;;;;;;4931884;28;20075;-90
2022/03/28 07:32:51;;;;;;;44.42;27.52;;;;;;;;;;4930512;28;20048;-88
2022/03/28 07:35:20;;;;;;;45.83;24.95;;;;;;;;;;4930848;28;20060;-89
2022/03/28 07:37:46;;;;;;;40.97;25.80;;;;;;;;;;4931793;28;20099;-89
2022/03/28 07:40:15;;;;;;;42.40;25.00;;;;;;;;;;4929412;28;20043;-88
2022/03/28 07:42:42;;;;;;;45.95;26.13;;;;;;;;;;4929831;28;20476;-89
2022/03/28 07:45:10;;;;;;;41.92;26.13;;;;;;;;;;4928480;28;20465;-90
2022/03/28 07:47:38;;;;;;;37.65;24.75;;;;;;;;;;4930389;28;20386;-89
2022/03/28 07:50:05;;;;;;;44.93;25.10;;;;;;;;;;4932509;28;20443;-84
2022/03/28 07:52:32;;;;;;;41.25;25.27;;;;;;;;;;4932355;28;20463;-90
2022/03/28 07:55:00;;;;;;;44.00;25.60;;;;;;;;;;4928177;29;20582;-90
2022/03/28 07:57:27;;;;;;;41.78;25.35;;;;;;;;;;4931551;28;20044;-89
2022/03/28 07:59:54;;;;;;;41.25;24.73;;;;;;;;;;4930952;28;20075;-89
2022/03/28 08:02:41;;;;;;;37.78;24.77;;;;;;;;;;4917499;29;20066;-90
2022/03/28 08:05:09;;;;;;;40.20;24.63;;;;;;;;;;4931132;28;20058;-90
2022/03/28 08:07:36;;;;;;;36.17;23.20;;;;;;;;;;4930836;28;20082;-89
2022/03/28 08:10:09;;;;;;;37.92;23.80;;;;;;;;;;4931816;28;20405;-89
2022/03/28 08:12:37;;;;;;;37.42;23.67;;;;;;;;;;4931539;29;20062;-89
2022/03/28 08:15:07;;;;;;;39.70;23.42;;;;;;;;;;4930531;28;20164;-90
2022/03/28 08:17:36;;;;;;;41.70;24.40;;;;;;;;;;4930051;28;20048;-90
2022/03/28 08:20:06;;;;;;;35.45;22.50;;;;;;;;;;4932314;28;20047;-90
2022/03/28 08:22:39;;;;;;;38.83;21.95;;;;;;;;;;4932269;28;20047;-89
2022/03/28 08:25:06;;;;;;;;;;;;;;;;;;4930889;28;20580;-86
2022/03/28 08:27:32;;;;;;;36.42;22.42;;;;;;;;;;4930944;28;19922;-90
2022/03/28 08:29:59;;;;;;;40.10;23.48;;;;;;;;;;4931334;28;20067;-89
2022/03/28 08:32:25;;;;;;;38.97;22.67;;;;;;;;;;4917981;29;20051;-89
2022/03/28 08:34:52;;;;;;;32.20;22.02;;;;;;;;;;4934599;28;20051;-89
2022/03/28 08:37:19;;;;;;;34.92;20.10;;;;;;;;;;4929656;28;20436;-89
2022/03/28 08:39:46;;;;;;;32.83;22.05;;;;;;;;;;4931091;28;20055;-89
2022/03/28 08:42:14;;;;;;;39.22;22.05;;;;;;;;;;4932955;28;20048;-89
2022/03/28 08:44:41;;;;;;;37.10;22.05;;;;;;;;;;4929902;28;20076;-88
2022/03/28 08:47:12;;;;;;;38.75;21.98;;;;;;;;;;4930582;28;20107;-88
2022/03/28 08:49:38;;;;;;;37.15;22.02;;;;;;;;;;4930333;28;20051;-89
2022/03/28 08:52:06;;;;;;;35.72;20.60;;;;;;;;;;4928723;28;20075;-89
2022/03/28 08:54:32;;;;;;;46.05;20.25;;;;;;;;;;4929436;28;20043;-90
2022/03/28 08:57:00;;;;;;;40.28;21.17;;;;;;;;;;4935036;28;20119;-89
2022/03/28 08:59:26;;;;;;;37.65;19.65;;;;;;;;;;4917336;29;20047;-90
2022/03/28 09:01:53;;;;;;;37.33;20.20;;;;;;;;;;4935847;28;20046;-91
2022/03/28 09:04:20;;;;;;;43.00;21.17;;;;;;;;;;4931960;28;20127;-90
2022/03/28 09:06:46;;;;;;;37.90;18.98;;;;;;;;;;4932344;28;20071;-90
2022/03/28 09:09:16;;;;;;;39.72;20.55;;;;;;;;;;4933613;28;20044;-91
2022/03/28 09:11:51;;;;;;;36.20;20.15;;;;;;;;;;4934440;28;20048;-90
2022/03/28 09:14:36;;;;;;;38.40;20.40;;;;;;;;;;4933010;28;20047;-90
2022/03/28 09:17:09;;;;;;;34.33;18.95;;;;;;;;;;4932383;28;20416;-83
2022/03/28 09:19:42;;;;;;;36.90;20.15;;;;;;;;;;4934737;28;20139;-90
2022/03/28 09:22:11;;;;;;;38.45;20.23;;;;;;;;;;4931510;28;20424;-90
2022/03/28 09:24:37;;;;;;;41.78;19.88;;;;;;;;;;4932575;28;20055;-90
2022/03/28 09:27:20;;;;;;;40.78;19.60;;;;;;;;;;4934100;28;20480;-91
2022/03/28 09:30:02;;;;;;;39.22;20.95;;;;;;;;;;4933054;28;20075;-91
2022/03/28 09:32:35;;;;;;;37.50;19.27;;;;;;;;;;4917292;29;20055;-90
2022/03/28 09:35:19;;;;;;;40.00;19.95;;;;;;;;;;4935246;28;20074;-91
2022/03/28 09:38:02;;;;;;;39.10;19.10;;;;;;;;;;4934109;28;20052;-91
2022/03/28 09:40:52;;;;;;;39.00;19.23;;;;;;;;;;4935205;28;20051;-91
2022/03/28 09:43:23;;;;;;;37.05;19.73;;;;;;;;;;4931815;28;20043;-91
2022/03/28 09:45:53;;;;;;;41.60;19.88;;;;;;;;;;4932266;28;20102;-90
2022/03/28 09:48:22;;;;;;;33.80;18.38;;;;;;;;;;4931535;28;20075;-90
2022/03/28 09:50:56;;;;;;;30.40;18.20;;;;;;;;;;4933988;28;20059;-91
2022/03/28 09:53:27;;;;;;;34.58;18.83;;;;;;;;;;4932188;28;20463;-90
2022/03/28 09:55:56;;;;;;;36.45;18.40;;;;;;;;;;4931190;28;20123;-91
2022/03/28 09:58:34;;;;;;;26.33;16.05;;;;;;;;;;4931669;28;20254;-91
2022/03/28 10:01:03;;;;;;;30.92;16.52;;;;;;;;;;4931968;28;20086;-90
2022/03/28 10:03:33;;;;;;;25.58;15.30;;;;;;;;;;4931065;28;20036;-90
2022/03/28 10:06:02;;;;;;;27.80;14.73;;;;;;;;;;4930969;28;20067;-90
2022/03/28 10:08:30;;;;;;;27.63;13.38;;;;;;;;;;4932078;28;20048;-89
2022/03/28 10:10:58;;;;;;;25.20;14.05;;;;;;;;;;4934916;28;20047;-91
2022/03/28 10:13:25;;;;;;;19.58;13.45;;;;;;;;;;4938168;28;20043;-89
2022/03/28 10:15:53;;;;;;;25.60;13.57;;;;;;;;;;4931615;29;20051;-90
2022/03/28 10:18:20;;;;;;;26.80;13.23;;;;;;;;;;4930988;28;20048;-90
2022/03/28 10:20:53;;;;;;;26.00;14.07;;;;;;;;;;4933696;28;20060;-91
2022/03/28 10:23:23;;;;;;;20.67;14.10;;;;;;;;;;4932364;28;20067;-91
2022/03/28 10:25:54;;;;;;;19.55;13.43;;;;;;;;;;4939014;29;20048;-90
2022/03/28 10:28:21;;;;;;;22.77;12.65;;;;;;;;;;4932795;28;20111;-91
2022/03/28 10:31:06;;;;;;;24.23;11.33;;;;;;;;;;4933148;28;20056;-90
2022/03/28 10:33:54;;;;;;;25.10;11.80;;;;;;;;;;4933830;28;20074;-91
2022/03/28 10:36:32;;;;;;;21.23;10.88;;;;;;;;;;4926390;28;20055;-91
2022/03/28 10:39:37;;;;;;;27.23;11.93;;;;;;;;;;4933891;28;20059;-91
2022/03/28 10:42:16;;;;;;;26.17;12.68;;;;;;;;;;4923892;28;20343;-83
2022/03/28 10:45:00;;;;;;;19.10;10.15;;;;;;;;;;4932004;28;20060;-91
2022/03/28 10:47:49;;;;;;;17.80;8.68;;;;;;;;;;4916643;29;20047;-90
2022/03/28 10:50:25;;;;;;;17.23;8.85;;;;;;;;;;4931768;28;20081;-90
2022/03/28 10:53:18;;;;;;;16.63;8.65;;;;;;;;;;4929663;28;20043;-91
2022/03/28 10:55:51;;;;;;;20.88;7.70;;;;;;;;;;4930711;28;20056;-92
2022/03/28 10:58:17;;;;;;;18.17;7.50;;;;;;;;;;4930849;28;20465;-88
2022/03/28 11:01:06;;;;;;;15.00;7.70;;;;;;;;;;4931826;29;20493;-89
2022/03/28 11:04:00;;;;;;;17.85;7.65;;;;;;;;;;4930369;28;20420;-89
2022/03/28 11:06:49;;;;;;;18.98;7.22;;;;;;;;;;4918164;29;20063;-89
2022/03/28 11:09:46;;;;;;;16.83;7.28;;;;;;;;;;4923385;28;20048;-90
2022/03/28 11:12:17;;;;;;;19.02;7.32;;;;;;;;;;4932902;28;20139;-88
2022/03/28 11:14:49;;;;;;;24.58;7.68;;;;;;;;;;4930884;28;20104;-90
2022/03/28 11:17:20;;;;;;;18.02;7.38;;;;;;;;;;4933567;28;20102;-90
2022/03/28 11:20:12;;;;;;;16.88;7.25;;;;;;;;;;4933298;28;20103;-90
2022/03/28 11:22:51;;;;;;;18.83;7.35;;;;;;;;;;4927371;28;20116;-90
2022/03/28 11:25:27;;;;;;;20.83;7.43;;;;;;;;;;4929813;28;20051;-90
2022/03/28 11:28:21;;;;;;;16.35;6.95;;;;;;;;;;4931701;28;20047;-90
2022/03/28 11:31:00;;;;;;;20.58;7.65;;;;;;;;;;4930802;28;20560;-90
2022/03/28 11:33:28;;;;;;;14.93;7.30;;;;;;;;;;4932871;28;20229;-90
2022/03/28 11:35:57;;;;;;;16.10;8.25;;;;;;;;;;4933843;28;20052;-91
2022/03/28 11:38:27;;;;;;;17.55;7.35;;;;;;;;;;4931320;28;20052;-91
2022/03/28 11:40:55;;;;;;;20.75;8.15;;;;;;;;;;4933851;28;20087;-91
2022/03/28 11:43:28;;;;;;;15.18;7.85;;;;;;;;;;4933398;28;20431;-90
2022/03/28 11:45:55;;;;;;;19.10;7.32;;;;;;;;;;4931539;28;20060;-90
2022/03/28 11:48:21;;;;;;;17.73;7.13;;;;;;;;;;4932686;28;20071;-90
2022/03/28 11:50:48;;;;;;;15.45;7.30;;;;;;;;;;4916752;29;20134;-90
2022/03/28 11:53:16;;;;;;;16.73;7.47;;;;;;;;;;4930594;28;20505;-90
2022/03/28 11:55:49;;;;;;;19.00;6.70;;;;;;;;;;4930987;28;20106;-90
2022/03/28 11:58:16;;;;;;;15.27;6.22;;;;;;;;;;4929617;28;20067;-91
2022/03/28 12:00:45;;;;;;;17.17;6.45;;;;;;;;;;4929834;28;20070;-90
2022/03/28 12:03:13;;;;;;;22.98;7.10;;;;;;;;;;4929224;28;20048;-89
2022/03/28 12:05:46;;;;;;;16.67;6.50;;;;;;;;;;4929568;28;20052;-90
2022/03/28 12:08:17;;;;;;;17.00;6.95;;;;;;;;;;4931726;28;20052;-91
2022/03/28 12:10:51;;;;;;;20.85;6.40;;;;;;;;;;4932312;28;20099;-92
2022/03/28 12:13:22;;;;;;;14.32;6.05;;;;;;;;;;4930035;28;20107;-89
2022/03/28 12:15:51;;;;;;;15.73;6.40;;;;;;;;;;4928267;28;20047;-90
2022/03/28 12:18:22;;;;;;;15.93;6.55;;;;;;;;;;4931251;28;20125;-92
2022/03/28 12:20:51;;;;;;;17.88;6.22;;;;;;;;;;4927632;28;20052;-91
2022/03/28 12:23:21;;;;;;;16.35;6.55;;;;;;;;;;4929598;28;20063;-90
2022/03/28 12:25:52;;;;;;;22.83;7.32;;;;;;;;;;4932262;28;20048;-91
2022/03/28 12:28:30;;;;;;;26.20;6.75;;;;;;;;;;4929415;28;20118;-91
2022/03/28 12:30:58;;;;;;;22.10;6.50;;;;;;;;;;4935182;28;20071;-91
2022/03/28 12:33:31;;;;;;;18.27;6.40;;;;;;;;;;4933450;28;20158;-90
2022/03/28 12:35:59;;;;;;;18.35;7.03;;;;;;;;;;4933869;28;20773;-91
2022/03/28 12:38:29;;;;;;;18.65;6.85;;;;;;;;;;4934339;28;20532;-89
2022/03/28 12:40:58;;;;;;;20.20;6.20;;;;;;;;;;4918777;29;20139;-91
2022/03/28 12:43:27;;;;;;;17.90;6.43;;;;;;;;;;4934117;29;20067;-91
2022/03/28 12:46:13;;;;;;;20.48;7.07;;;;;;;;;;4935010;28;20107;-90
2022/03/28 12:48:41;;;;;;;19.27;6.88;;;;;;;;;;4937602;28;20509;-91
2022/03/28 12:51:09;;;;;;;19.80;6.77;;;;;;;;;;4935901;28;20047;-91
2022/03/28 12:53:38;;;;;;;23.08;6.53;;;;;;;;;;4937740;28;20048;-90
2022/03/28 12:56:19;;;;;;;18.15;6.43;;;;;;;;;;4939804;28;20439;-90
2022/03/28 12:58:57;;;;;;;18.15;6.50;;;;;;;;;;4935450;28;20055;-90
2022/03/28 13:01:31;;;;;;;19.98;6.70;;;;;;;;;;4928837;28;20052;-91
2022/03/28 13:04:20;;;;;;;22.35;6.65;;;;;;;;;;4933396;28;20096;-90
2022/03/28 13:06:50;;;;;;;18.77;6.63;;;;;;;;;;4936509;28;20043;-90
2022/03/28 13:09:17;;;;;;;21.48;6.85;;;;;;;;;;4935508;28;20078;-90
2022/03/28 13:11:46;;;;;;;19.45;6.18;;;;;;;;;;4933570;28;20583;-90
2022/03/28 13:14:31;;;;;;;24.23;6.43;;;;;;;;;;4934694;28;20047;-89
2022/03/28 13:17:09;;;;;;;25.17;7.15;;;;;;;;;;4936085;28;20520;-89
2022/03/28 13:19:38;;;;;;;22.52;6.53;;;;;;;;;;4937660;28;20126;-90
2022/03/28 13:22:06;;;;;;;17.90;6.60;;;;;;;;;;4931999;28;20470;-89
2022/03/28 13:24:34;;;;;;;20.40;6.53;;;;;;;;;;4937262;28;20093;-90
2022/03/28 13:29:56;;;;;;;17.02;6.38;;;;;;;;;;4927473;28;20078;-90
2022/03/28 13:32:23;;;;;;;18.55;6.68;;;;;;;;;;4933906;28;20515;-90
2022/03/28 13:34:49;;;;;;;18.60;6.82;;;;;;;;;;4939509;28;20060;-91
2022/03/28 13:37:23;;;;;;;21.33;6.68;;;;;;;;;;4930814;28;20793;-91
2022/03/28 13:39:50;;;;;;;20.33;6.40;;;;;;;;;;4931761;28;20071;-91
2022/03/28 13:42:16;;;;;;;15.25;6.15;;;;;;;;;;4933115;28;20071;-86
2022/03/28 13:44:43;;;;;;;25.92;6.32;;;;;;;;;;4929810;28;20055;-90
2022/03/28 13:47:10;;;;;;;24.88;7.13;;;;;;;;;;4930424;28;20087;-89
2022/03/28 13:49:37;;;;;;;21.20;6.70;;;;;;;;;;4916029;28;20159;-91
2022/03/28 13:52:04;;;;;;;25.55;6.05;;;;;;;;;;4930437;28;20055;-86
2022/03/28 13:54:32;;;;;;;21.08;6.55;;;;;;;;;;4929134;28;20047;-91
2022/03/28 13:56:58;;;;;;;22.98;6.97;;;;;;;;;;4926657;28;20083;-90
2022/03/28 13:59:25;;;;;;;24.02;6.80;;;;;;;;;;4928196;28;20056;-90
2022/03/28 14:01:51;;;;;;;17.95;6.63;;;;;;;;;;4932744;28;20421;-91
2022/03/28 14:04:20;;;;;;;19.23;6.20;;;;;;;;;;4927657;28;20059;-90
2022/03/28 14:06:47;;;;;;;22.17;6.32;;;;;;;;;;4924757;28;20060;-91
2022/03/28 14:09:17;;;;;;;22.58;6.75;;;;;;;;;;4931320;28;20130;-90
2022/03/28 14:11:44;;;;;;;17.85;6.22;;;;;;;;;;4934631;28;20071;-91
2022/03/28 14:14:11;;;;;;;22.42;6.72;;;;;;;;;;4932076;28;20043;-91
2022/03/28 14:16:38;;;;;;;17.45;6.35;;;;;;;;;;4932081;28;20055;-90
2022/03/28 14:19:06;;;;;;;23.42;6.03;;;;;;;;;;4916887;28;20043;-88
2022/03/28 14:21:33;;;;;;;21.98;5.88;;;;;;;;;;4931347;28;20102;-89
2022/03/28 14:23:59;;;;;;;20.10;6.22;;;;;;;;;;4930513;28;20130;-88
2022/03/28 14:26:26;;;;;;;21.60;6.57;;;;;;;;;;4927704;28;20075;-88
2022/03/28 14:28:53;;;;;;;25.45;6.00;;;;;;;;;;4931000;28;20118;-89
2022/03/28 14:31:19;;;;;;;22.15;6.82;;;;;;;;;;4929615;28;20047;-89
2022/03/28 14:33:46;;;;;;;19.25;6.03;;;;;;;;;;4929678;28;20115;-87
2022/03/28 14:36:13;;;;;;;22.77;6.75;;;;;;;;;;4932150;28;20500;-88
2022/03/28 14:38:40;;;;;;;21.95;6.00;;;;;;;;;;4928536;29;20051;-87
2022/03/28 14:41:06;;;;;;;25.90;5.93;;;;;;;;;;4929316;28;20111;-87
2022/03/28 14:43:33;;;;;;;22.25;6.07;;;;;;;;;;4929998;28;20052;-87
2022/03/28 14:48:45;;;;;;;23.98;5.75;;;;;;;;;;4932332;28;20524;-88
2022/03/28 14:51:14;;;;;;;21.08;6.53;;;;;;;;;;4932201;28;20520;-89
2022/03/28 14:53:40;;;;;;;17.25;6.25;;;;;;;;;;4938757;28;20043;-87
2022/03/28 14:56:07;;;;;;;23.50;6.88;;;;;;;;;;4936360;28;20036;-87
2022/03/28 14:58:52;;;;;;;21.98;6.13;;;;;;;;;;4935198;28;20048;-89
2022/03/28 15:01:19;;;;;;;16.63;5.90;;;;;;;;;;4932811;28;20062;-88
2022/03/28 15:03:46;;;;;;;22.98;5.65;;;;;;;;;;4927732;28;20146;-88
2022/03/28 15:06:14;;;;;;;23.98;6.30;;;;;;;;;;4921159;28;20047;-90
2022/03/28 15:08:41;;;;;;;18.80;6.18;;;;;;;;;;4923179;28;20055;-88
2022/03/28 15:11:08;;;;;;;29.35;6.25;;;;;;;;;;4926617;28;20059;-90
2022/03/28 15:13:35;;;;;;;24.70;6.28;;;;;;;;;;4926471;28;20059;-90
2022/03/28 15:16:02;;;;;;;20.63;6.22;;;;;;;;;;4923109;28;20112;-87
2022/03/28 15:18:29;;;;;;;22.50;5.97;;;;;;;;;;4921268;28;20422;-89
2022/03/28 15:20:56;;;;;;;19.02;6.18;;;;;;;;;;4926528;28;20048;-91
2022/03/28 15:23:23;;;;;;;18.17;5.93;;;;;;;;;;4924601;28;20047;-91
2022/03/28 15:25:51;;;;;;;31.35;6.00;;;;;;;;;;4923726;28;20062;-90
2022/03/28 15:28:18;;;;;;;17.65;5.30;;;;;;;;;;4926358;28;20519;-89
2022/03/28 15:31:23;;;;;;;22.17;6.22;;;;;;;;;;4930148;28;20874;-90
2022/03/28 15:34:08;;;;;;;26.92;6.88;;;;;;;;;;4925703;28;20103;-88
2022/03/28 15:36:40;;;;;;;24.25;6.15;;;;;;;;;;4925335;28;20111;-92
2022/03/28 15:39:12;;;;;;;32.42;6.65;;;;;;;;;;4920370;28;20043;-90
2022/03/28 15:41:39;;;;;;;26.05;6.72;;;;;;;;;;4929285;28;20044;-91
2022/03/28 15:44:08;;;;;;;20.75;6.40;;;;;;;;;;4928947;28;20138;-90
2022/03/28 15:46:35;;;;;;;21.45;5.80;;;;;;;;;;4930215;28;20059;-89
2022/03/28 15:49:03;;;;;;;26.50;6.85;;;;;;;;;;4922340;28;20051;-88
2022/03/28 15:51:30;;;;;;;24.35;6.38;;;;;;;;;;4923431;28;20125;-90
2022/03/28 15:53:57;;;;;;;17.05;5.75;;;;;;;;;;4924236;28;20048;-91
2022/03/28 15:56:24;;;;;;;20.85;6.55;;;;;;;;;;4920709;28;20469;-90
2022/03/28 15:58:51;;;;;;;17.33;5.90;;;;;;;;;;4922756;28;20048;-90
2022/03/28 16:04:08;;;;;;;20.95;5.88;;;;;;;;;;4920916;28;20078;-91
2022/03/28 16:06:38;;;;;;;21.75;6.18;;;;;;;;;;4919682;28;20480;-88
2022/03/28 16:09:05;;;;;;;18.73;5.82;;;;;;;;;;4917715;28;20150;-88
2022/03/28 16:11:33;;;;;;;20.83;6.38;;;;;;;;;;4923882;29;20047;-89
2022/03/28 16:14:00;;;;;;;20.50;6.00;;;;;;;;;;4924609;28;20478;-88
2022/03/28 16:16:26;;;;;;;19.20;6.10;;;;;;;;;;4929109;28;20123;-90
2022/03/28 16:18:53;;;;;;;19.00;5.82;;;;;;;;;;4924655;28;20134;-90
2022/03/28 16:21:20;;;;;;;20.35;5.25;;;;;;;;;;4918610;28;20050;-89
2022/03/28 16:23:47;;;;;;;24.63;6.15;;;;;;;;;;4926042;28;20414;-90
2022/03/28 16:26:14;;;;;;;20.60;6.45;;;;;;;;;;4926522;28;20819;-88
2022/03/28 16:28:40;;;;;;;21.77;5.88;;;;;;;;;;4928992;28;20107;-89
2022/03/28 16:31:09;;;;;;;21.15;5.72;;;;;;;;;;4927834;28;20056;-90
2022/03/28 16:33:36;;;;;;;26.02;6.97;;;;;;;;;;4926062;28;20462;-91
2022/03/28 16:36:03;;;;;;;27.55;6.40;;;;;;;;;;4915627;28;20477;-91
2022/03/28 16:38:31;;;;;;;23.42;6.30;;;;;;;;;;4923472;28;20040;-90
2022/03/28 16:40:57;;;;;;;33.25;7.25;;;;;;;;;;4927502;28;20067;-90
2022/03/28 16:43:24;;;;;;;23.45;6.15;;;;;;;;;;4921397;28;20076;-90
2022/03/28 16:45:51;;;;;;;27.33;5.75;;;;;;;;;;4928409;29;20568;-91
2022/03/28 16:48:18;;;;;;;27.02;6.85;;;;;;;;;;4925719;28;20516;-90
2022/03/28 16:50:47;;;;;;;25.83;6.25;;;;;;;;;;4929976;28;20142;-90
2022/03/28 16:53:14;;;;;;;23.67;6.57;;;;;;;;;;4930021;28;20071;-91
2022/03/28 16:55:42;;;;;;;19.92;6.13;;;;;;;;;;4931066;28;20056;-91
2022/03/28 16:58:14;;;;;;;21.27;5.93;;;;;;;;;;4927269;28;20052;-92
2022/03/28 17:00:41;;;;;;;29.13;6.90;;;;;;;;;;4931539;28;20059;-90
2022/03/28 17:03:09;;;;;;;26.85;6.80;;;;;;;;;;4928582;28;20461;-92
2022/03/28 17:05:37;;;;;;;27.67;6.88;;;;;;;;;;4932501;28;20063;-91
2022/03/28 17:08:06;;;;;;;28.38;7.63;;;;;;;;;;4930969;28;20052;-84
2022/03/28 17:10:33;;;;;;;27.67;7.40;;;;;;;;;;4930568;28;20107;-91
2022/03/28 17:13:02;;;;;;;22.92;6.38;;;;;;;;;;4931507;28;20526;-91
2022/03/28 17:15:30;;;;;;;26.90;6.40;;;;;;;;;;4923039;28;20425;-91
2022/03/28 17:17:57;;;;;;;27.52;7.47;;;;;;;;;;4931289;28;20079;-90
2022/03/28 17:20:26;;;;;;;29.50;7.05;;;;;;;;;;4921417;28;20100;-91
2022/03/28 17:22:53;;;;;;;26.80;7.05;;;;;;;;;;4931399;28;20077;-90
2022/03/28 17:25:19;;;;;;;26.35;6.40;;;;;;;;;;4929713;28;20043;-91
2022/03/28 17:27:50;;;;;;;26.25;7.80;;;;;;;;;;4930636;28;20115;-89
2022/03/28 17:30:17;;;;;;;27.52;6.80;;;;;;;;;;4928551;28;20109;-91
2022/03/28 17:32:45;;;;;;;28.25;8.02;;;;;;;;;;4929381;28;20492;-90
2022/03/28 17:35:14;;;;;;;22.75;7.40;;;;;;;;;;4930597;28;20047;-89
2022/03/28 17:37:42;;;;;;;30.85;7.78;;;;;;;;;;4919856;29;20080;-89
2022/03/28 17:40:10;;;;;;;21.17;6.90;;;;;;;;;;4926339;28;20092;-91
2022/03/28 17:42:39;;;;;;;31.70;7.20;;;;;;;;;;4929343;28;20106;-90
2022/03/28 17:45:06;;;;;;;28.73;7.07;;;;;;;;;;4930976;28;20108;-90
2022/03/28 17:47:34;;;;;;;32.25;7.45;;;;;;;;;;4931025;29;20044;-91
2022/03/28 17:50:01;;;;;;;21.75;7.63;;;;;;;;;;4933194;28;20145;-91
2022/03/28 17:52:29;;;;;;;23.17;7.07;;;;;;;;;;4933044;28;20069;-89
2022/03/28 17:54:55;;;;;;;27.23;7.38;;;;;;;;;;4935388;28;20717;-89
2022/03/28 17:57:23;;;;;;;22.58;6.55;;;;;;;;;;4932208;28;20051;-90
2022/03/28 17:59:50;;;;;;;30.07;7.77;;;;;;;;;;4930907;28;20500;-87
2022/03/28 18:02:16;;;;;;;30.20;8.85;;;;;;;;;;4930337;28;20075;-88
2022/03/28 18:04:43;;;;;;;27.67;8.52;;;;;;;;;;4927516;28;20102;-91
2022/03/28 18:07:10;;;;;;;30.48;7.45;;;;;;;;;;4926326;28;20051;-91
2022/03/28 18:09:36;;;;;;;26.13;7.88;;;;;;;;;;4935249;28;20048;-91
2022/03/28 18:12:15;;;;;;;31.67;7.80;;;;;;;;;;4933433;28;20079;-90
2022/03/28 18:14:53;;;;;;;31.15;7.88;;;;;;;;;;4927025;29;20100;-88
2022/03/28 18:17:20;;;;;;;29.95;7.38;;;;;;;;;;4928892;28;20059;-87
2022/03/28 18:19:47;;;;;;;34.15;7.82;;;;;;;;;;4931174;28;20094;-90
2022/03/28 18:22:16;;;;;;;26.17;7.82;;;;;;;;;;4932195;28;20138;-90
2022/03/28 18:24:42;;;;;;;;;;;;;;;;;;4928328;28;20075;-90
2022/03/28 18:27:09;;;;;;;30.75;8.25;;;;;;;;;;4931233;28;19961;-88
2022/03/28 18:29:40;;;;;;;30.65;7.82;;;;;;;;;;4931679;28;20416;-90
2022/03/28 18:32:07;;;;;;;33.22;8.32;;;;;;;;;;4932632;28;20054;-89
2022/03/28 18:34:35;;;;;;;23.85;7.57;;;;;;;;;;4921911;28;20123;-89
2022/03/28 18:37:03;;;;;;;23.60;7.53;;;;;;;;;;4931760;28;20107;-88
2022/03/28 18:39:30;;;;;;;36.22;8.77;;;;;;;;;;4931360;28;20083;-89
2022/03/28 18:41:56;;;;;;;29.90;8.20;;;;;;;;;;4930643;28;20110;-89
2022/03/28 18:44:25;;;;;;;28.38;8.93;;;;;;;;;;4930485;28;20047;-88
2022/03/28 18:46:53;;;;;;;22.45;8.63;;;;;;;;;;4932365;28;20090;-89
2022/03/28 18:49:20;;;;;;;36.90;8.98;;;;;;;;;;4930128;28;20616;-88
2022/03/28 18:51:47;;;;;;;34.35;9.07;;;;;;;;;;4929700;29;20111;-88
2022/03/28 18:54:14;;;;;;;27.77;8.73;;;;;;;;;;4931508;28;20445;-89
2022/03/28 18:56:58;;;;;;;30.48;9.02;;;;;;;;;;4930105;28;20055;-89
2022/03/28 18:59:25;;;;;;;31.05;9.68;;;;;;;;;;4927515;28;20079;-87
2022/03/28 19:01:51;;;;;;;43.30;10.00;;;;;;;;;;4932377;28;20047;-90
2022/03/28 19:04:22;;;;;;;36.03;9.65;;;;;;;;;;4928747;28;20056;-89
2022/03/28 19:06:48;;;;;;;32.45;8.52;;;;;;;;;;4930593;28;20051;-90
2022/03/28 19:09:16;;;;;;;33.28;10.25;;;;;;;;;;4935729;28;20074;-89
2022/03/28 19:11:43;;;;;;;38.78;9.13;;;;;;;;;;4930238;28;20055;-87
2022/03/28 19:14:10;;;;;;;25.10;8.18;;;;;;;;;;4931891;28;20044;-88
2022/03/28 19:16:37;;;;;;;30.73;9.07;;;;;;;;;;4931905;29;20483;-87
2022/03/28 19:19:04;;;;;;;28.40;9.43;;;;;;;;;;4934088;28;20051;-84
2022/03/28 19:21:31;;;;;;;26.33;8.63;;;;;;;;;;4932935;28;20044;-87
2022/03/28 19:23:59;;;;;;;28.13;8.77;;;;;;;;;;4926460;29;20079;-89
2022/03/28 19:26:26;;;;;;;32.13;8.40;;;;;;;;;;4929791;28;20063;-89
2022/03/28 19:28:53;;;;;;;23.30;8.98;;;;;;;;;;4931503;28;20048;-89
2022/03/28 19:31:19;;;;;;;28.80;9.02;;;;;;;;;;4920633;28;20116;-89
2022/03/28 19:33:47;;;;;;;46.38;9.18;;;;;;;;;;4932353;28;20078;-88
2022/03/28 19:36:14;;;;;;;34.65;9.30;;;;;;;;;;4930070;28;20043;-89
2022/03/28 19:38:45;;;;;;;33.40;9.30;;;;;;;;;;4930857;28;20062;-89
2022/03/28 19:41:12;;;;;;;39.67;10.10;;;;;;;;;;4930330;28;20052;-90
2022/03/28 19:43:39;;;;;;;48.00;9.73;;;;;;;;;;4926390;28;20099;-88
2022/03/28 19:46:05;;;;;;;27.58;8.88;;;;;;;;;;4928210;28;20287;-88
2022/03/28 19:48:52;;;;;;;40.55;10.32;;;;;;;;;;4927140;28;20056;-90
2022/03/28 19:51:18;;;;;;;36.42;10.18;;;;;;;;;;4930186;28;20052;-89
2022/03/28 19:53:45;;;;;;;37.58;10.82;;;;;;;;;;4929033;29;20488;-90
2022/03/28 19:56:11;;;;;;;34.83;9.75;;;;;;;;;;4927851;28;20479;-90
2022/03/28 19:58:39;;;;;;;38.97;10.07;;;;;;;;;;4927857;28;20488;-89
2022/03/28 20:01:07;;;;;;;35.25;10.30;;;;;;;;;;4928705;28;20840;-88
2022/03/28 20:03:34;;;;;;;45.92;11.25;;;;;;;;;;4929832;28;20059;-88
2022/03/28 20:06:00;;;;;;;42.33;9.98;;;;;;;;;;4928325;29;20044;-88
2022/03/28 20:08:27;;;;;;;39.25;9.65;;;;;;;;;;4929410;28;20056;-89
2022/03/28 20:10:54;;;;;;;51.58;10.93;;;;;;;;;;4928960;28;20079;-88
2022/03/28 20:13:22;;;;;;;38.13;10.27;;;;;;;;;;4922757;28;20051;-88
2022/03/28 20:15:51;;;;;;;34.00;10.60;;;;;;;;;;4926797;28;20079;-88
2022/03/28 20:18:18;;;;;;;42.72;11.35;;;;;;;;;;4925836;28;20051;-87
2022/03/28 20:20:45;;;;;;;47.50;11.65;;;;;;;;;;4928191;28;20466;-89
2022/03/28 20:23:13;;;;;;;43.60;11.60;;;;;;;;;;4929373;28;20056;-89
2022/03/28 20:25:40;;;;;;;46.47;11.68;;;;;;;;;;4930266;28;20064;-88
2022/03/28 20:28:07;;;;;;;46.25;11.15;;;;;;;;;;4926619;28;20090;-89
2022/03/28 20:30:34;;;;;;;50.10;11.00;;;;;;;;;;4927723;28;20056;-91
2022/03/28 20:33:01;;;;;;;45.58;12.30;;;;;;;;;;4924887;28;20163;-87
2022/03/28 20:35:28;;;;;;;41.92;11.45;;;;;;;;;;4928167;28;20052;-88
2022/03/28 20:37:56;;;;;;;48.97;12.57;;;;;;;;;;4929128;28;20051;-88
2022/03/28 20:40:22;;;;;;;45.13;12.82;;;;;;;;;;4921617;28;20127;-87
2022/03/28 20:42:49;;;;;;;44.28;12.20;;;;;;;;;;4925718;28;20658;-87
2022/03/28 20:45:16;;;;;;;48.92;13.07;;;;;;;;;;4927344;28;20516;-87
2022/03/28 20:47:42;;;;;;;41.58;13.48;;;;;;;;;;4927912;28;21604;-87
2022/03/28 20:50:10;;;;;;;40.53;12.27;;;;;;;;;;4927913;28;20079;-90